Terminal Aerodrome Forecast
Issued by NWS

Home | Current Version | Previous Version | Text Only | Print | Product List | Glossary On
Versions: 1 2 3 4 5 6 7 8 9 10 11 12 13 14 15 16 17 18 19 20 21 22 23 24 25 26
000
FTUS43 KSGF 150520
TAFJLN
TAF
KJLN 150520Z 1506/1606 18010KT P6SM OVC050 WS020/21050KT
     FM150900 20012KT 6SM -SHRA BR VCTS OVC025CB WS020/21050KT
     FM151400 29012KT 4SM BR OVC007
     FM151600 33012G20KT P6SM OVC015
     FM151800 34013G20KT P6SM SKC
     FM152300 35008KT P6SM SKC=

USA.gov is the U.S. government's official web portal to all federal, state and local government web resources and services.